createdAt,value
2018-11-13T00:00:22.453Z,12.17
2018-11-13T00:02:51.372Z,12.23
2018-11-13T00:05:19.785Z,11.67
2018-11-13T00:07:47.741Z,11.47
2018-11-13T00:10:16.171Z,12.27
2018-11-13T00:12:44.189Z,11.87
2018-11-13T00:15:19.829Z,12.10
2018-11-13T00:17:47.859Z,12.47
2018-11-13T00:20:17.471Z,12.33
2018-11-13T00:22:45.592Z,12.60
2018-11-13T00:25:14.716Z,12.87
2018-11-13T00:27:42.976Z,12.83
2018-11-13T00:30:13.636Z,12.93
2018-11-13T00:32:42.045Z,13.77
2018-11-13T00:35:17.448Z,14.63
2018-11-13T00:37:46.137Z,13.63
2018-11-13T00:40:14.383Z,14.07
2018-11-13T00:42:43.311Z,13.93
2018-11-13T00:45:12.301Z,13.87
2018-11-13T00:47:40.283Z,15.00
2018-11-13T00:50:10.095Z,14.23
2018-11-13T00:52:38.103Z,14.40
2018-11-13T00:55:06.273Z,15.27
2018-11-13T00:57:34.266Z,14.70
2018-11-13T01:00:02.327Z,15.20
2018-11-13T01:02:30.282Z,15.87
2018-11-13T01:04:58.839Z,15.03
2018-11-13T01:07:27.432Z,15.70
2018-11-13T01:09:55.385Z,16.23
2018-11-13T01:12:23.978Z,15.93
2018-11-13T01:14:53.954Z,16.70
2018-11-13T01:17:21.953Z,16.30
2018-11-13T01:19:49.994Z,16.63
2018-11-13T01:22:17.938Z,16.10
2018-11-13T01:24:45.880Z,16.53
2018-11-13T01:27:13.906Z,17.10
2018-11-13T01:29:46.290Z,16.27
2018-11-13T01:32:14.284Z,16.40
2018-11-13T01:34:42.300Z,16.73
2018-11-13T01:37:10.224Z,16.63
2018-11-13T01:39:38.114Z,16.80
2018-11-13T01:42:06.108Z,16.63
2018-11-13T01:44:34.014Z,17.77
2018-11-13T01:47:02.902Z,18.27
2018-11-13T01:49:30.932Z,17.70
2018-11-13T01:51:58.902Z,18.60
2018-11-13T01:54:30.179Z,18.53
2018-11-13T01:56:57.995Z,18.67
2018-11-13T01:59:26.032Z,19.53
2018-11-13T02:01:55.198Z,17.73
2018-11-13T02:04:23.198Z,18.13
2018-11-13T02:06:51.104Z,18.53
2018-11-13T02:09:19.059Z,18.27
2018-11-13T02:11:47.019Z,18.53
2018-11-13T02:14:19.283Z,19.23
2018-11-13T02:16:47.223Z,17.73
2018-11-13T02:19:15.254Z,18.73
2018-11-13T02:21:43.156Z,19.17
2018-11-13T02:24:14.354Z,17.73
2018-11-13T02:26:42.241Z,19.33
2018-11-13T02:29:10.196Z,17.03
2018-11-13T02:31:38.145Z,17.17
2018-11-13T02:34:11.128Z,17.40
2018-11-13T02:36:39.068Z,17.60
2018-11-13T02:39:08.925Z,17.27
2018-11-13T02:41:36.928Z,17.70
2018-11-13T02:44:05.036Z,17.20
2018-11-13T02:46:33.006Z,16.60
2018-11-13T02:49:01.046Z,16.23
2018-11-13T02:51:29.096Z,16.57
2018-11-13T02:53:57.064Z,14.77
2018-11-13T02:56:25.783Z,15.17
2018-11-13T02:58:53.700Z,15.80
2018-11-13T03:01:21.661Z,15.43
2018-11-13T03:03:53.200Z,15.93
2018-11-13T03:06:21.175Z,14.57
2018-11-13T03:08:49.053Z,14.67
2018-11-13T03:11:17.375Z,13.63
2018-11-13T03:13:45.317Z,13.67
2018-11-13T03:16:13.213Z,14.00
2018-11-13T03:18:41.193Z,14.73
2018-11-13T03:21:09.221Z,13.80
2018-11-13T03:23:37.181Z,13.83
2018-11-13T03:26:06.429Z,13.43
2018-11-13T03:28:34.533Z,13.43
2018-11-13T03:31:02.557Z,13.27
2018-11-13T03:33:30.515Z,12.73
2018-11-13T03:35:59.331Z,13.57
2018-11-13T03:38:27.250Z,13.03
2018-11-13T03:40:55.266Z,12.67
2018-11-13T03:43:23.218Z,12.93
2018-11-13T03:45:51.147Z,13.17
2018-11-13T03:48:19.141Z,12.20
2018-11-13T03:50:47.799Z,11.77
2018-11-13T03:53:15.697Z,12.47
2018-11-13T03:55:49.445Z,11.60
2018-11-13T03:58:17.490Z,11.93
2018-11-13T04:00:45.463Z,12.03
2018-11-13T04:03:13.437Z,11.43
2018-11-13T04:05:41.522Z,11.93
2018-11-13T04:08:10.459Z,12.13
2018-11-13T04:10:38.487Z,12.37
2018-11-13T04:13:06.498Z,10.90
2018-11-13T04:15:34.497Z,11.07
2018-11-13T04:18:02.559Z,10.87
2018-11-13T04:20:30.486Z,10.80
2018-11-13T04:22:58.456Z,10.97
2018-11-13T04:25:27.548Z,10.60
2018-11-13T04:27:55.777Z,10.90
2018-11-13T04:30:23.861Z,10.67
2018-11-13T04:32:51.825Z,10.40
2018-11-13T04:35:20.859Z,11.03
2018-11-13T04:37:48.893Z,11.00
2018-11-13T04:40:17.837Z,10.20
2018-11-13T04:42:47.347Z,10.40
2018-11-13T04:45:16.580Z,9.80
2018-11-13T04:47:45.623Z,9.37
2018-11-13T04:50:14.744Z,10.20
2018-11-13T04:52:42.994Z,10.10
2018-11-13T04:55:16.421Z,9.53
2018-11-13T04:57:45.334Z,8.93
2018-11-13T05:00:15.129Z,9.43
2018-11-13T05:02:43.712Z,9.00
2018-11-13T05:05:16.344Z,8.33
2018-11-13T05:07:45.882Z,8.10
2018-11-13T05:10:14.144Z,8.17
2018-11-13T05:12:43.135Z,7.57
2018-11-13T05:15:11.156Z,8.13
2018-11-13T05:17:40.084Z,7.40
2018-11-13T05:20:11.021Z,8.40
2018-11-13T05:22:39.031Z,7.90
2018-11-13T05:25:10.206Z,7.97
2018-11-13T05:27:38.546Z,8.00
2018-11-13T05:30:08.412Z,6.70
2018-11-13T05:32:36.493Z,7.63
2018-11-13T05:35:05.300Z,7.60
2018-11-13T05:37:33.306Z,7.63
2018-11-13T05:40:01.256Z,6.83
2018-11-13T05:42:29.263Z,7.23
2018-11-13T05:44:57.262Z,6.70
2018-11-13T05:47:25.250Z,6.70
2018-11-13T05:49:53.185Z,7.00
2018-11-13T05:52:22.154Z,7.27
2018-11-13T05:54:52.155Z,7.13
2018-11-13T05:57:20.100Z,6.50
2018-11-13T05:59:48.200Z,7.53
2018-11-13T06:02:49.081Z,6.53
2018-11-13T06:05:20.767Z,6.67
2018-11-13T06:07:48.731Z,6.63
2018-11-13T06:10:16.688Z,6.67
2018-11-13T06:12:44.676Z,6.60
2018-11-13T06:15:17.377Z,6.33
2018-11-13T06:17:45.262Z,5.87
2018-11-13T06:20:14.452Z,6.20
2018-11-13T06:22:42.535Z,6.10
2018-11-13T06:25:12.406Z,6.37
2018-11-13T06:27:42.391Z,6.07
2018-11-13T06:30:14.225Z,6.60
2018-11-13T06:32:42.474Z,5.87
2018-11-13T06:35:11.503Z,6.30
2018-11-13T06:37:40.366Z,6.33
2018-11-13T06:40:09.807Z,5.40
2018-11-13T06:42:38.294Z,5.30
2018-11-13T06:45:08.429Z,5.67
2018-11-13T06:47:36.469Z,5.73
2018-11-13T06:50:04.829Z,5.93
2018-11-13T06:52:32.783Z,5.07
2018-11-13T06:55:10.393Z,5.07
2018-11-13T06:57:38.585Z,5.47
2018-11-13T07:00:08.164Z,5.67
2018-11-13T07:02:36.499Z,5.30
2018-11-13T07:05:06.586Z,5.73
2018-11-13T07:07:34.541Z,4.30
2018-11-13T07:10:02.524Z,4.83
2018-11-13T07:12:30.522Z,4.40
2018-11-13T07:14:58.446Z,4.83
2018-11-13T07:17:26.314Z,4.70
2018-11-13T07:19:54.689Z,4.80
2018-11-13T07:22:23.220Z,4.80
2018-11-13T07:24:57.967Z,4.27
2018-11-13T07:27:26.251Z,4.40
2018-11-13T07:29:54.482Z,4.60
2018-11-13T07:32:22.393Z,4.57
2018-11-13T07:34:50.358Z,4.13
2018-11-13T07:37:18.346Z,4.70
2018-11-13T07:39:46.296Z,4.87
2018-11-13T07:42:14.320Z,4.50
2018-11-13T07:44:42.274Z,4.60
2018-11-13T07:47:11.529Z,4.50
2018-11-13T07:49:39.381Z,4.47
2018-11-13T07:52:07.342Z,4.33
2018-11-13T07:54:36.890Z,4.33
2018-11-13T07:57:06.084Z,3.97
2018-11-13T07:59:34.094Z,4.07
2018-11-13T08:02:03.138Z,3.90
2018-11-13T08:04:35.601Z,3.80
2018-11-13T08:07:03.909Z,4.03
2018-11-13T08:09:31.790Z,3.60
2018-11-13T08:11:59.896Z,3.63
2018-11-13T08:14:27.812Z,3.80
2018-11-13T08:16:55.760Z,3.50
2018-11-13T08:19:23.739Z,3.70
2018-11-13T08:21:51.720Z,3.80
2018-11-13T08:24:24.731Z,3.43
2018-11-13T08:26:52.659Z,3.23
2018-11-13T08:29:20.619Z,3.67
2018-11-13T08:31:48.591Z,3.77
2018-11-13T08:34:16.552Z,3.70
2018-11-13T08:36:44.419Z,3.43
2018-11-13T08:39:13.136Z,3.37
2018-11-13T08:41:41.068Z,4.10
2018-11-13T08:44:09.566Z,3.27
2018-11-13T08:46:37.526Z,3.53
2018-11-13T08:49:07.009Z,2.93
2018-11-13T08:51:34.950Z,3.50
2018-11-13T08:54:02.922Z,2.93
2018-11-13T08:56:30.860Z,2.87
2018-11-13T08:58:58.844Z,3.27
2018-11-13T09:01:26.694Z,2.87
2018-11-13T09:03:54.616Z,3.00
2018-11-13T09:06:22.572Z,2.77
2018-11-13T09:08:50.605Z,2.80
2018-11-13T09:11:18.570Z,2.87
2018-11-13T09:13:46.500Z,3.00
2018-11-13T09:16:14.373Z,3.10
2018-11-13T09:18:42.951Z,3.43
2018-11-13T09:21:10.880Z,2.70
2018-11-13T09:23:38.704Z,2.60
2018-11-13T09:26:07.020Z,2.77
2018-11-13T09:28:34.922Z,2.30
2018-11-13T09:31:03.155Z,2.40
2018-11-13T09:33:31.037Z,2.93
2018-11-13T09:35:58.885Z,2.20
2018-11-13T09:38:26.764Z,2.73
2018-11-13T09:40:55.280Z,2.70
2018-11-13T09:43:23.129Z,2.87
2018-11-13T09:45:51.121Z,2.70
2018-11-13T09:48:19.087Z,2.83
2018-11-13T09:50:47.143Z,2.40
2018-11-13T09:53:15.191Z,3.20
2018-11-13T09:55:43.068Z,2.60
2018-11-13T09:58:11.004Z,2.57
2018-11-13T10:00:39.441Z,2.80
2018-11-13T10:03:09.109Z,2.30
2018-11-13T10:05:36.774Z,2.70
2018-11-13T10:08:04.812Z,3.00
2018-11-13T10:10:32.743Z,2.70
2018-11-13T10:13:00.682Z,2.90
2018-11-13T10:15:31.032Z,2.87
2018-11-13T10:17:59.603Z,3.10
2018-11-13T10:20:27.832Z,2.97
2018-11-13T10:22:56.738Z,2.90
2018-11-13T10:25:24.753Z,2.70
2018-11-13T10:27:52.844Z,3.03
2018-11-13T10:30:22.172Z,3.20
2018-11-13T10:32:50.905Z,3.10
2018-11-13T10:35:23.331Z,3.17
2018-11-13T10:37:51.312Z,3.00
2018-11-13T10:40:20.492Z,2.93
2018-11-13T10:42:48.427Z,2.73
2018-11-13T10:45:19.986Z,2.80
2018-11-13T10:47:47.962Z,2.80
2018-11-13T10:50:19.379Z,2.70
2018-11-13T10:52:47.290Z,2.67
2018-11-13T10:55:16.303Z,2.70
2018-11-13T10:57:44.377Z,2.93
2018-11-13T11:00:18.696Z,2.30
2018-11-13T11:02:52.587Z,2.13
2018-11-13T11:05:20.708Z,2.20
2018-11-13T11:07:49.422Z,2.10
2018-11-13T11:10:17.288Z,1.67
2018-11-13T11:12:46.473Z,2.00
2018-11-13T11:15:17.848Z,1.80
2018-11-13T11:17:45.834Z,1.90
2018-11-13T11:20:13.802Z,2.03
2018-11-13T11:22:41.878Z,1.50
2018-11-13T11:25:11.196Z,2.37
2018-11-13T11:27:40.091Z,2.40
2018-11-13T11:30:10.212Z,1.90
2018-11-13T11:32:38.322Z,1.97
2018-11-13T11:35:08.307Z,2.20
2018-11-13T11:37:36.934Z,2.20
2018-11-13T11:40:04.934Z,2.33
2018-11-13T11:42:32.979Z,2.00
2018-11-13T11:45:05.893Z,2.00
2018-11-13T11:47:33.954Z,2.10
2018-11-13T11:50:01.824Z,1.83
2018-11-13T11:52:29.961Z,2.27
2018-11-13T11:54:59.948Z,2.47
2018-11-13T11:57:28.289Z,2.27
2018-11-13T11:59:56.218Z,2.17
2018-11-13T12:02:24.255Z,2.90
2018-11-13T12:04:52.266Z,2.47
2018-11-13T12:07:20.292Z,2.30
2018-11-13T12:09:48.226Z,2.73
2018-11-13T12:12:16.219Z,2.40
2018-11-13T12:14:45.266Z,2.73
2018-11-13T12:17:13.236Z,2.20
2018-11-13T12:19:41.337Z,2.43
2018-11-13T12:22:09.287Z,2.70
2018-11-13T12:24:42.830Z,2.40
2018-11-13T12:27:10.790Z,2.57
2018-11-13T12:29:38.778Z,2.80
2018-11-13T12:32:06.795Z,3.27
2018-11-13T12:34:34.977Z,2.50
2018-11-13T12:37:02.893Z,2.37
2018-11-13T12:39:30.896Z,2.37
2018-11-13T12:41:58.872Z,2.30
2018-11-13T12:44:27.890Z,2.50
2018-11-13T12:46:57.030Z,2.53
2018-11-13T12:49:25.229Z,3.30
2018-11-13T12:51:58.740Z,2.13
2018-11-13T12:54:26.706Z,2.27
2018-11-13T12:56:54.804Z,2.43
2018-11-13T12:59:22.786Z,1.97
2018-11-13T13:01:50.818Z,2.10
2018-11-13T13:04:20.690Z,2.43
2018-11-13T13:06:48.721Z,2.40
2018-11-13T13:09:16.638Z,2.53
2018-11-13T13:11:45.255Z,2.13
2018-11-13T13:14:17.464Z,1.90
2018-11-13T13:16:45.638Z,2.00
2018-11-13T13:19:13.648Z,2.57
2018-11-13T13:21:41.701Z,2.10
2018-11-13T13:24:14.474Z,1.60
2018-11-13T13:26:42.470Z,2.57
2018-11-13T13:29:10.416Z,2.10
2018-11-13T13:31:38.375Z,2.00
2018-11-13T13:34:06.380Z,2.00
2018-11-13T13:36:34.376Z,1.70
2018-11-13T13:39:02.456Z,2.50
2018-11-13T13:41:30.402Z,2.37
2018-11-13T13:44:04.625Z,1.87
2018-11-13T13:46:33.056Z,5.50
2018-11-13T13:49:00.942Z,2.90
2018-11-13T13:51:29.031Z,3.43
2018-11-13T13:53:57.186Z,2.00
2018-11-13T13:56:25.182Z,2.93
2018-11-13T13:58:56.488Z,12.50
2018-11-13T14:01:24.518Z,3.10
2018-11-13T14:03:56.740Z,2.00
2018-11-13T14:06:24.698Z,1.90
2018-11-13T14:08:52.699Z,1.80
2018-11-13T14:11:20.684Z,1.70
2018-11-13T14:13:55.813Z,1.90
2018-11-13T14:16:23.845Z,1.87
2018-11-13T14:18:51.847Z,1.97
2018-11-13T14:21:19.870Z,1.67
2018-11-13T14:23:52.538Z,1.80
2018-11-13T14:26:21.172Z,1.80
2018-11-13T14:28:49.102Z,1.87
2018-11-13T14:31:17.060Z,2.00
2018-11-13T14:33:56.134Z,1.67
2018-11-13T14:36:24.125Z,2.23
2018-11-13T14:38:52.076Z,1.80
2018-11-13T14:41:20.056Z,1.70
2018-11-13T14:43:49.070Z,1.40
2018-11-13T14:46:17.136Z,1.40
2018-11-13T14:48:45.172Z,1.30
2018-11-13T14:51:13.624Z,1.43
2018-11-13T14:53:45.438Z,1.60
2018-11-13T14:56:14.046Z,1.53
2018-11-13T14:58:42.133Z,1.50
2018-11-13T15:01:10.297Z,1.80
2018-11-13T15:03:44.892Z,1.50
2018-11-13T15:06:12.900Z,1.63
2018-11-13T15:08:40.960Z,1.53
2018-11-13T15:11:08.918Z,1.80
2018-11-13T15:13:36.932Z,1.50
2018-11-13T15:16:05.316Z,1.80
2018-11-13T15:18:33.377Z,1.93
2018-11-13T15:21:01.370Z,2.00
2018-11-13T15:23:29.390Z,1.83
2018-11-13T15:25:57.408Z,1.87
2018-11-13T15:28:25.456Z,1.83
2018-11-13T15:30:53.670Z,1.90
2018-11-13T15:33:24.190Z,2.13
2018-11-13T15:35:52.390Z,2.10
2018-11-13T15:38:20.529Z,2.07
2018-11-13T15:40:49.326Z,2.10
2018-11-13T15:43:17.342Z,2.47
2018-11-13T15:45:45.577Z,2.13
2018-11-13T15:48:15.200Z,2.40
2018-11-13T15:50:43.310Z,2.40
2018-11-13T15:53:11.506Z,2.27
2018-11-13T15:55:58.107Z,3.30
2018-11-13T15:58:26.112Z,9.50
2018-11-13T16:00:54.180Z,6.10
2018-11-13T16:03:24.690Z,7.97
2018-11-13T16:05:54.024Z,4.00
2018-11-13T16:08:23.032Z,5.47
2018-11-13T16:10:51.027Z,5.20
2018-11-13T16:13:19.031Z,3.90
2018-11-13T16:15:46.977Z,4.37
2018-11-13T16:18:16.573Z,3.47
2018-11-13T16:20:44.790Z,3.00
2018-11-13T16:23:14.096Z,3.03
2018-11-13T16:25:43.244Z,3.60
2018-11-13T16:28:11.312Z,3.53
2018-11-13T16:30:40.793Z,3.50
2018-11-13T16:33:08.984Z,3.50
2018-11-13T16:35:37.167Z,4.10
2018-11-13T16:38:06.728Z,4.67
2018-11-13T16:40:34.977Z,3.67
2018-11-13T16:43:03.078Z,3.63
2018-11-13T16:45:43.711Z,2.80
2018-11-13T16:48:11.777Z,4.03
2018-11-13T16:50:41.226Z,3.43
2018-11-13T16:53:09.203Z,3.47
2018-11-13T16:55:44.670Z,2.93
2018-11-13T16:58:14.550Z,3.10
2018-11-13T17:00:42.842Z,3.20
2018-11-13T17:03:10.894Z,3.27
2018-11-13T17:05:39.178Z,3.23
2018-11-13T17:08:07.875Z,3.40
2018-11-13T17:10:38.692Z,3.70
2018-11-13T17:13:06.862Z,3.40
2018-11-13T17:15:46.683Z,3.70
2018-11-13T17:18:15.610Z,3.50
2018-11-13T17:20:43.621Z,3.33
2018-11-13T17:23:11.726Z,3.20
2018-11-13T17:25:41.787Z,3.13
2018-11-13T17:28:10.314Z,3.27
2018-11-13T17:30:38.667Z,3.20
2018-11-13T17:33:08.284Z,7.53
2018-11-13T17:35:37.058Z,7.07
2018-11-13T17:38:05.505Z,8.70
2018-11-13T17:40:35.703Z,5.30
2018-11-13T17:43:05.085Z,4.97
2018-11-13T17:45:37.358Z,4.60
2018-11-13T17:48:06.879Z,5.60
2018-11-13T17:50:36.921Z,5.63
2018-11-13T17:53:07.090Z,6.13
2018-11-13T17:55:35.408Z,4.90
2018-11-13T17:58:04.882Z,3.97
2018-11-13T18:00:35.740Z,4.50
2018-11-13T18:03:05.488Z,3.97
2018-11-13T18:05:43.904Z,5.33
2018-11-13T18:08:14.176Z,6.90
2018-11-13T18:10:43.562Z,5.67
2018-11-13T18:13:11.590Z,5.17
2018-11-13T18:15:39.601Z,4.50
2018-11-13T18:18:13.467Z,4.20
2018-11-13T18:20:43.617Z,4.63
2018-11-13T18:23:13.122Z,4.60
2018-11-13T18:42:59.857Z,5.00
2018-11-13T18:48:21.978Z,5.30
2018-11-13T18:50:50.978Z,4.60
2018-11-13T18:53:19.259Z,5.40
2018-11-13T19:10:28.227Z,5.53
2018-11-13T19:12:58.234Z,4.70
2018-11-13T19:24:15.636Z,5.23
2018-11-13T19:26:44.052Z,5.07
2018-11-13T19:29:12.353Z,5.67
2018-11-13T19:31:41.116Z,6.00
2018-11-13T19:51:25.557Z,6.53
2018-11-13T20:05:31.946Z,5.60
2018-11-13T20:08:00.117Z,6.10
2018-11-13T20:10:29.488Z,5.87
2018-11-13T20:12:58.924Z,6.03
2018-11-13T20:15:27.914Z,6.50
2018-11-13T20:17:56.391Z,6.33
2018-11-13T20:20:26.758Z,6.07
2018-11-13T20:22:55.552Z,6.10
2018-11-13T20:25:30.685Z,6.23
2018-11-13T20:27:58.843Z,5.97
2018-11-13T20:30:30.346Z,5.97
2018-11-13T20:32:58.405Z,7.23
2018-11-13T20:35:31.021Z,7.37
2018-11-13T20:37:59.658Z,7.50
2018-11-13T20:40:29.050Z,6.17
2018-11-13T20:42:58.410Z,6.17
2018-11-13T20:45:26.643Z,5.80
2018-11-13T20:47:54.825Z,5.13
2018-11-13T20:50:24.364Z,6.00
2018-11-13T20:52:52.508Z,5.77
2018-11-13T20:55:20.744Z,5.60
2018-11-13T20:57:48.868Z,4.90
2018-11-13T21:00:18.313Z,5.10
2018-11-13T21:02:47.348Z,4.87
2018-11-13T21:05:18.969Z,4.90
2018-11-13T21:07:47.073Z,5.60
2018-11-13T21:10:16.634Z,5.97
2018-11-13T21:12:46.022Z,5.13
2018-11-13T21:15:15.692Z,7.60
2018-11-13T21:17:43.916Z,5.43
2018-11-13T21:20:15.047Z,7.70
2018-11-13T21:22:43.086Z,5.87
2018-11-13T21:25:19.265Z,4.97
2018-11-13T21:27:47.250Z,4.73
2018-11-13T21:30:19.203Z,5.30
2018-11-13T21:32:48.534Z,5.10
2018-11-13T21:35:23.551Z,5.73
2018-11-13T21:37:52.997Z,7.00
2018-11-13T21:40:22.326Z,6.50
2018-11-13T21:42:51.145Z,6.80
2018-11-13T21:45:26.590Z,6.60
2018-11-13T21:47:54.810Z,6.57
2018-11-13T21:50:25.297Z,6.43
2018-11-13T21:52:53.443Z,7.00
2018-11-13T21:55:26.249Z,6.87
2018-11-13T21:57:54.441Z,6.87
2018-11-13T22:00:26.229Z,8.03
2018-11-13T22:02:58.023Z,7.63
2018-11-13T22:07:54.056Z,7.27
2018-11-13T22:10:22.223Z,6.80
2018-11-13T22:12:50.189Z,7.10
2018-11-13T22:15:19.900Z,7.60
2018-11-13T22:17:47.991Z,7.70
2018-11-13T22:20:16.945Z,7.47
2018-11-13T22:22:45.098Z,7.03
2018-11-13T22:25:21.513Z,7.37
2018-11-13T22:27:50.675Z,6.80
2018-11-13T22:30:21.840Z,6.00
2018-11-13T22:32:50.049Z,6.30
2018-11-13T22:35:20.160Z,7.33
2018-11-13T22:37:48.201Z,6.53
2018-11-13T22:40:18.400Z,7.03
2018-11-13T22:42:46.889Z,6.80
2018-11-13T22:45:23.997Z,6.60
2018-11-13T22:47:52.331Z,7.23
2018-11-13T22:50:22.658Z,7.07
2018-11-13T22:52:51.027Z,8.23
2018-11-13T22:55:19.441Z,5.80
2018-11-13T22:57:48.464Z,4.80
2018-11-13T23:00:18.695Z,6.20
2018-11-13T23:02:49.039Z,5.30
2018-11-13T23:05:18.226Z,5.40
2018-11-13T23:07:46.275Z,5.27
2018-11-13T23:10:15.229Z,4.87
2018-11-13T23:12:43.756Z,5.30
2018-11-13T23:15:19.528Z,4.70
2018-11-13T23:17:47.870Z,4.97
2018-11-13T23:20:18.097Z,4.83
2018-11-13T23:22:46.237Z,4.50
2018-11-13T23:25:20.463Z,5.23
2018-11-13T23:27:50.269Z,5.03
2018-11-13T23:30:20.483Z,5.30
2018-11-13T23:32:48.936Z,5.40
2018-11-13T23:35:17.230Z,4.70
2018-11-13T23:37:46.446Z,5.13
2018-11-13T23:40:16.563Z,5.30
2018-11-13T23:42:45.007Z,5.30
2018-11-13T23:45:14.044Z,6.07
2018-11-13T23:47:42.733Z,4.50
2018-11-13T23:50:10.897Z,5.37
2018-11-13T23:52:38.961Z,4.70
2018-11-13T23:55:08.753Z,5.43
2018-11-13T23:57:36.937Z,4.67
